Time;durP1;ratioP1;P1;durP2;ratioP2;P2;SDS_P1;SDS_P2;PMS_P1;PMS_P2;Temp;Humidity;BMP_temperature;BMP_pressure;BME280_temperature;BME280_humidity;BME280_pressure;Samples;Min_cycle;Max_cycle;Signal;HPM_P1;HPM_P2
2020/12/11 00:02:06;;;;;;;;;;;;;;;27.02;34.80;99985.03;5057557;28;749;-29
2020/12/11 00:04:32;;;;;;;;;;;;;;;26.99;35.22;99985.38;5056993;28;947;-29
2020/12/11 00:07:00;;;;;;;;;;;;;;;26.94;35.27;99987.88;5057637;28;863;-29
2020/12/11 00:09:25;;;;;;;;;;;;;;;27.03;35.46;99983.13;5057420;28;1910;-32
2020/12/11 00:11:50;;;;;;;;;;;;;;;27.02;35.64;99985.03;5057222;28;814;-28
2020/12/11 00:14:16;;;;;;;;;;;;;;;26.99;35.60;99989.97;5061113;28;1084;-31
2020/12/11 00:16:42;;;;;;;;;;;;;;;27.00;35.67;99994.31;5077375;28;807;-31
2020/12/11 00:19:07;;;;;;;;;;;;;;;26.97;35.98;99984.75;5046406;28;736169;-31
2020/12/11 00:21:39;;;;;;;;;;;;;;;26.96;36.22;99979.56;5058575;28;832;-39
2020/12/11 00:24:04;;;;;;;;;;;;;;;27.00;35.66;99973.56;5057957;28;823;-37
2020/12/11 00:26:29;;;;;;;;;;;;;;;26.96;36.28;99972.28;5058038;28;816;-37
2020/12/11 00:28:55;;;;;;;;;;;;;;;26.98;36.22;99967.53;5058188;28;1917;-28
2020/12/11 00:31:23;;;;;;;;;;;;;;;26.99;36.17;99960.28;5058467;28;780;-38
2020/12/11 00:33:49;;;;;;;;;;;;;;;27.00;36.41;99965.47;5057473;28;975;-33
2020/12/11 00:36:14;;;;;;;;;;;;;;;26.93;36.66;99956.50;5058186;28;823;-34
2020/12/11 00:38:39;;;;;;;;;;;;;;;26.95;36.38;99954.44;5058036;28;824;-29
2020/12/11 00:41:04;;;;;;;;;;;;;;;26.97;36.87;99951.53;5057804;28;827;-30
2020/12/11 00:43:30;;;;;;;;;;;;;;;26.90;37.02;99951.50;5058270;28;811;-28
2020/12/11 00:45:55;;;;;;;;;;;;;;;26.84;37.21;99958.53;5057623;28;773;-32
2020/12/11 00:48:20;;;;;;;;;;;;;;;26.85;36.97;99953.97;5056842;28;1930;-27
2020/12/11 00:50:45;;;;;;;;;;;;;;;26.87;37.14;99941.13;5057056;28;1082;-29
2020/12/11 00:53:11;;;;;;;;;;;;;;;26.86;37.20;99945.66;5057840;28;772;-36
2020/12/11 00:55:36;;;;;;;;;;;;;;;26.86;37.11;99942.16;5057414;28;796;-28
2020/12/11 00:58:01;;;;;;;;;;;;;;;26.83;37.17;99947.94;5057595;28;829;-32
2020/12/11 01:00:26;;;;;;;;;;;;;;;26.83;37.04;99942.53;5057714;28;800;-27
2020/12/11 01:02:52;;;;;;;;;;;;;;;26.79;37.00;99936.72;5057525;28;763;-29
2020/12/11 01:05:17;;;;;;;;;;;;;;;26.86;37.19;99934.88;5057059;28;932;-29
2020/12/11 01:07:42;;;;;;;;;;;;;;;26.87;36.94;99924.94;5057371;28;1906;-30
2020/12/11 01:10:08;;;;;;;;;;;;;;;26.86;36.95;99926.78;5057538;28;750;-28
2020/12/11 01:12:34;;;;;;;;;;;;;;;26.88;36.80;99930.13;5056598;28;864;-40
2020/12/11 01:14:59;;;;;;;;;;;;;;;26.87;36.60;99920.38;5066976;28;1092;-28
2020/12/11 01:17:24;;;;;;;;;;;;;;;26.83;36.75;99919.09;5077294;28;1060;-39
2020/12/11 01:19:50;;;;;;;;;;;;;;;26.83;36.90;99926.34;5065502;28;955;-29
2020/12/11 01:22:15;;;;;;;;;;;;;;;26.83;36.90;99919.09;5057316;28;838;-34
2020/12/11 01:24:40;;;;;;;;;;;;;;;26.83;36.70;99915.56;5057345;28;804;-38
2020/12/11 01:27:05;;;;;;;;;;;;;;;26.78;36.90;99918.84;5056757;28;835;-28
2020/12/11 01:29:31;;;;;;;;;;;;;;;26.78;36.77;99905.38;5057255;28;1901;-31
2020/12/11 01:31:59;;;;;;;;;;;;;;;26.83;36.74;99910.16;5057579;28;787;-29
2020/12/11 01:34:24;;;;;;;;;;;;;;;26.80;36.77;99906.00;5056452;28;1050;-31
2020/12/11 01:36:49;;;;;;;;;;;;;;;26.83;36.82;99902.91;5057118;28;740;-30
2020/12/11 01:39:15;;;;;;;;;;;;;;;26.78;36.83;99902.66;5057013;28;764;-29
2020/12/11 01:41:40;;;;;;;;;;;;;;;26.80;36.74;99905.16;5056538;28;863;-27
2020/12/11 01:44:06;;;;;;;;;;;;;;;26.78;36.92;99895.41;5057092;28;804;-38
2020/12/11 01:46:32;;;;;;;;;;;;;;;26.79;37.14;99896.25;5056570;28;839;-31
2020/12/11 01:48:57;;;;;;;;;;;;;;;26.78;37.02;99898.13;5038291;28;1898;-28
2020/12/11 01:51:23;;;;;;;;;;;;;;;26.83;37.24;99892.09;5056958;28;843;-38
2020/12/11 01:53:48;;;;;;;;;;;;;;;26.81;37.05;99887.97;5056673;28;764;-32
2020/12/11 01:56:14;;;;;;;;;;;;;;;26.73;37.66;99873.59;5056422;28;913;-29
2020/12/11 01:58:40;;;;;;;;;;;;;;;26.82;37.23;99866.16;5056753;28;772;-38
2020/12/11 02:01:05;;;;;;;;;;;;;;;26.82;37.38;99862.63;5056460;28;737;-31
2020/12/11 02:03:30;;;;;;;;;;;;;;;26.74;37.95;99864.47;5055781;28;982;-29
2020/12/11 02:05:56;;;;;;;;;;;;;;;26.78;37.61;99852.25;5058828;28;788;-34
2020/12/11 02:08:21;;;;;;;;;;;;;;;26.74;37.74;99855.56;5076719;28;1898;-37
2020/12/11 02:10:47;;;;;;;;;;;;;;;26.73;37.93;99865.50;5076301;28;831;-28
2020/12/11 02:13:12;;;;;;;;;;;;;;;26.75;37.81;99868.00;5076743;28;760;-39
2020/12/11 02:15:37;;;;;;;;;;;;;;;26.74;37.87;99877.94;5076397;28;1096;-30
2020/12/11 02:18:03;;;;;;;;;;;;;;;26.74;38.09;99874.44;5075980;28;1091;-29
2020/12/11 02:20:28;;;;;;;;;;;;;;;26.81;38.25;99882.56;5059937;28;974;-38
2020/12/11 02:22:53;;;;;;;;;;;;;;;26.80;38.42;99881.72;5056280;28;727;-30
2020/12/11 02:25:19;;;;;;;;;;;;;;;26.81;38.33;99880.69;5056098;28;812;-30
2020/12/11 02:27:47;;;;;;;;;;;;;;;26.82;38.15;99878.81;5056460;28;1969;-40
2020/12/11 02:30:12;;;;;;;;;;;;;;;26.76;38.22;99867.78;5056264;28;772;-36
2020/12/11 02:32:38;;;;;;;;;;;;;;;26.69;38.37;99858.03;5056164;28;756;-31
2020/12/11 02:35:03;;;;;;;;;;;;;;;26.76;38.29;99857.00;5056151;28;943;-31
2020/12/11 02:37:28;;;;;;;;;;;;;;;26.76;38.20;99866.97;5056105;28;815;-31
2020/12/11 02:39:53;;;;;;;;;;;;;;;26.77;38.55;99869.47;5056019;28;800;-28
2020/12/11 02:42:19;;;;;;;;;;;;;;;26.80;38.53;99872.78;5056395;28;887;-28
2020/12/11 02:44:44;;;;;;;;;;;;;;;26.71;38.51;99870.25;5056135;28;803;-28
2020/12/11 02:47:09;;;;;;;;;;;;;;;26.72;38.31;99865.72;5055907;28;743;-33
2020/12/11 02:49:35;;;;;;;;;;;;;;;26.77;38.15;99860.53;5038040;28;1905;-39
2020/12/11 02:52:00;;;;;;;;;;;;;;;26.71;38.45;99859.47;5056111;28;776;-28
2020/12/11 02:54:25;;;;;;;;;;;;;;;26.70;38.42;99870.47;5055875;28;800;-32
2020/12/11 02:56:51;;;;;;;;;;;;;;;26.69;38.58;99877.75;5056221;28;760;-26
2020/12/11 02:59:16;;;;;;;;;;;;;;;26.69;38.37;99875.06;5056407;28;828;-27
2020/12/11 03:01:41;;;;;;;;;;;;;;;26.76;38.31;99872.34;5055791;28;828;-38
2020/12/11 03:04:07;;;;;;;;;;;;;;;26.76;37.96;99875.88;5037161;28;968;-32
2020/12/11 03:06:32;;;;;;;;;;;;;;;26.71;38.23;99875.66;5055896;28;788;-30
2020/12/11 03:08:58;;;;;;;;;;;;;;;26.72;38.03;99880.03;5055689;28;1969;-27
2020/12/11 03:11:23;;;;;;;;;;;;;;;26.66;38.33;99883.53;5056486;28;737;-29
2020/12/11 03:13:48;;;;;;;;;;;;;;;26.62;38.34;99891.22;5059303;28;792;-29
2020/12/11 03:16:16;;;;;;;;;;;;;;;26.70;38.72;99879.41;5079088;28;1124;-38
2020/12/11 03:18:41;;;;;;;;;;;;;;;27.67;35.38;99891.06;5077302;28;1253;-28
2020/12/11 03:21:06;;;;;;;;;;;;;;;27.94;34.07;99888.38;5059531;28;737;-35
2020/12/11 03:23:32;;;;;;;;;;;;;;;27.80;34.05;99887.53;5059341;28;866;-38
2020/12/11 03:25:57;;;;;;;;;;;;;;;27.87;34.55;99882.13;5059790;28;756;-30
2020/12/11 03:28:22;;;;;;;;;;;;;;;27.70;34.60;99885.25;5059382;28;1981;-38
2020/12/11 03:30:48;;;;;;;;;;;;;;;27.66;34.66;99886.66;5059544;28;787;-30
2020/12/11 03:33:13;;;;;;;;;;;;;;;27.56;35.29;99878.97;5059346;28;788;-38
2020/12/11 03:35:38;;;;;;;;;;;;;;;27.52;35.51;99869.66;5059173;28;936;-30
2020/12/11 03:38:03;;;;;;;;;;;;;;;27.80;34.97;99874.03;5059016;28;902;-29
2020/12/11 03:40:29;;;;;;;;;;;;;;;28.24;34.10;99863.53;5058775;28;732;-38
2020/12/11 03:42:54;;;;;;;;;;;;;;;28.47;33.68;99856.88;5059310;28;843;-28
2020/12/11 03:45:19;;;;;;;;;;;;;;;28.30;33.55;99859.16;5059313;28;796;-28
2020/12/11 03:47:45;;;;;;;;;;;;;;;28.16;34.15;99855.66;5058160;28;1902;-40
2020/12/11 03:50:10;;;;;;;;;;;;;;;28.38;33.83;99858.13;5058735;28;948;-28
2020/12/11 03:52:35;;;;;;;;;;;;;;;28.53;33.59;99852.44;5059400;28;839;-32
2020/12/11 03:55:01;;;;;;;;;;;;;;;28.41;33.47;99840.66;5058494;28;780;-33
2020/12/11 03:57:26;;;;;;;;;;;;;;;28.49;33.67;99835.00;5059002;28;823;-37
2020/12/11 03:59:51;;;;;;;;;;;;;;;28.56;33.51;99826.84;5059005;28;827;-32
2020/12/11 04:02:16;;;;;;;;;;;;;;;28.59;33.15;99839.94;5057982;28;842;-27
2020/12/11 04:04:42;;;;;;;;;;;;;;;28.51;33.44;99842.91;5058703;28;1010;-37
2020/12/11 04:07:07;;;;;;;;;;;;;;;28.44;33.61;99841.06;5058653;28;760;-28
2020/12/11 04:09:33;;;;;;;;;;;;;;;28.73;32.93;99832.59;5058340;28;1977;-38
2020/12/11 04:11:58;;;;;;;;;;;;;;;28.66;33.02;99835.31;5058756;28;744;-32
2020/12/11 04:14:23;;;;;;;;;;;;;;;27.74;32.02;99821.63;5063019;28;1109;-28
2020/12/11 04:16:49;;;;;;;;;;;;;;;26.20;34.45;99823.75;5078152;28;796;-27
2020/12/11 04:19:14;;;;;;;;;;;;;;;25.11;33.45;99827.47;5071427;28;1114;-38
2020/12/11 04:21:39;;;;;;;;;;;;;;;24.56;34.91;99833.25;5058527;28;792;-31
2020/12/11 04:24:05;;;;;;;;;;;;;;;24.48;34.36;99836.88;5058028;28;843;-31
2020/12/11 04:26:30;;;;;;;;;;;;;;;23.65;35.09;99845.81;5058068;28;796;-30
2020/12/11 04:28:55;;;;;;;;;;;;;;;23.95;35.29;99856.59;5058284;28;1918;-30
2020/12/11 04:31:20;;;;;;;;;;;;;;;24.04;34.63;99860.88;5057894;28;852;-31
2020/12/11 04:33:46;;;;;;;;;;;;;;;23.80;35.22;99862.78;5057855;28;935;-31
2020/12/11 04:36:16;;;;;;;;;;;;;;;23.31;35.99;99859.47;5058131;28;819;-31
2020/12/11 04:38:41;;;;;;;;;;;;;;;23.34;36.48;99858.25;5057809;28;830;-33
2020/12/11 04:41:06;;;;;;;;;;;;;;;23.37;36.64;99855.25;5058283;28;748;-33
2020/12/11 04:43:31;;;;;;;;;;;;;;;24.48;34.24;99853.03;5040179;28;1248;-28
2020/12/11 04:45:57;;;;;;;;;;;;;;;24.27;34.81;99865.38;5057613;28;780;-30
2020/12/11 04:48:22;;;;;;;;;;;;;;;23.83;35.58;99864.28;5057938;28;1902;-29
2020/12/11 04:50:48;;;;;;;;;;;;;;;23.69;35.46;99872.09;5039664;28;987;-29
2020/12/11 04:53:14;;;;;;;;;;;;;;;23.96;35.61;99871.69;5057167;28;796;-31
2020/12/11 04:55:40;;;;;;;;;;;;;;;23.80;35.54;99873.53;5068020;28;1407;-31
2020/12/11 04:58:05;;;;;;;;;;;;;;;24.82;33.68;99877.66;5057891;28;1219;-44
2020/12/11 05:00:30;;;;;;;;;;;;;;;23.96;34.49;99872.53;5075700;28;1219;-37
2020/12/11 05:02:56;;;;;;;;;;;;;;;23.89;34.54;99868.91;5077392;28;821;-32
2020/12/11 05:05:21;;;;;;;;;;;;;;;24.07;34.13;99875.81;5043727;28;1060;-39
2020/12/11 05:07:46;;;;;;;;;;;;;;;23.16;34.79;99878.19;5057263;28;1969;-41
2020/12/11 05:10:12;;;;;;;;;;;;;;;23.55;33.82;99886.31;5057618;28;808;-41
2020/12/11 05:12:37;;;;;;;;;;;;;;;24.04;33.16;99881.53;5057389;28;950;-34
2020/12/11 05:15:10;;;;;;;;;;;;;;;24.14;32.18;99876.72;5067145;28;1061;-31
2020/12/11 05:17:36;;;;;;;;;;;;;;;23.68;32.74;99880.34;5077246;28;1157;-35
2020/12/11 05:20:01;;;;;;;;;;;;;;;23.68;32.72;99891.94;5063637;28;860;-38
2020/12/11 05:22:30;;;;;;;;;;;;;;;23.57;33.30;99898.53;5057369;28;776;-37
2020/12/11 05:24:56;;;;;;;;;;;;;;;23.94;32.58;99904.13;5057356;28;816;-37
2020/12/11 05:27:28;;;;;;;;;;;;;;;23.70;32.75;99902.47;5057348;28;811;-35
2020/12/11 05:29:54;;;;;;;;;;;;;;;23.76;32.25;99898.22;5056676;28;804;-34
2020/12/11 05:32:35;;;;;;;;;;;;;;;23.26;33.19;99898.56;5039363;28;748;-31
2020/12/11 05:35:00;;;;;;;;;;;;;;;24.34;32.29;99906.59;5056665;28;999;-38
2020/12/11 05:37:25;;;;;;;;;;;;;;;25.21;31.81;99907.09;5057072;28;804;-30
2020/12/11 05:39:50;;;;;;;;;;;;;;;25.40;31.57;99905.59;5057327;28;866;-33
2020/12/11 05:42:16;;;;;;;;;;;;;;;25.55;31.13;99908.25;5056945;28;780;-32
2020/12/11 05:44:41;;;;;;;;;;;;;;;25.68;31.29;99916.47;5056609;28;820;-33
2020/12/11 05:47:19;;;;;;;;;;;;;;;25.71;31.19;99917.94;5056854;28;787;-32
2020/12/11 05:49:44;;;;;;;;;;;;;;;25.78;31.35;99918.84;5055959;28;1964;-36
2020/12/11 05:52:11;;;;;;;;;;;;;;;25.82;31.35;99923.84;5039117;28;898;-38
2020/12/11 05:54:39;;;;;;;;;;;;;;;25.88;31.52;99921.19;5056647;28;850;-34
2020/12/11 05:57:05;;;;;;;;;;;;;;;25.93;31.15;99915.22;5056584;28;820;-33
2020/12/11 05:59:30;;;;;;;;;;;;;;;25.85;31.67;99920.75;5056520;28;796;-32
2020/12/11 06:01:56;;;;;;;;;;;;;;;25.98;31.40;99917.31;5056538;28;938;-35
2020/12/11 06:04:21;;;;;;;;;;;;;;;26.08;31.22;99916.97;5056333;28;1047;-36
2020/12/11 06:06:46;;;;;;;;;;;;;;;25.99;31.25;99930.59;5038329;28;824;-34
2020/12/11 06:09:12;;;;;;;;;;;;;;;26.01;31.58;99923.16;5038859;28;1960;-37
2020/12/11 06:11:37;;;;;;;;;;;;;;;26.01;31.30;99931.25;5056767;28;824;-37
2020/12/11 06:14:03;;;;;;;;;;;;;;;26.02;31.39;99937.47;5040157;28;1534;-36
2020/12/11 06:16:28;;;;;;;;;;;;;;;26.04;31.32;99943.50;5058229;28;867;-42
2020/12/11 06:18:57;;;;;;;;;;;;;;;26.04;31.70;99947.00;5054784;28;1199;-36
2020/12/11 06:21:23;;;;;;;;;;;;;;;26.10;31.54;99937.31;5038426;28;769;-40
2020/12/11 06:23:48;;;;;;;;;;;;;;;26.09;31.57;99941.03;5038358;28;878;-37
2020/12/11 06:26:13;;;;;;;;;;;;;;;26.06;31.89;99943.31;5056597;28;819;-37
2020/12/11 06:28:39;;;;;;;;;;;;;;;26.06;31.52;99944.13;5056029;28;1918;-39
2020/12/11 06:31:08;;;;;;;;;;;;;;;26.10;31.55;99941.88;5056450;28;756;-40
2020/12/11 06:33:33;;;;;;;;;;;;;;;26.21;31.29;99949.41;5056159;28;987;-40
2020/12/11 06:35:59;;;;;;;;;;;;;;;26.17;31.36;99954.38;5056224;28;768;-40
2020/12/11 06:38:43;;;;;;;;;;;;;;;26.15;31.58;99951.06;5056314;28;751;-36
2020/12/11 06:41:09;;;;;;;;;;;;;;;26.17;31.77;99957.06;5056732;28;830;-35
2020/12/11 06:43:40;;;;;;;;;;;;;;;26.15;31.55;99961.00;5056265;28;784;-42
2020/12/11 06:46:18;;;;;;;;;;;;;;;26.19;31.63;99959.59;5056598;28;764;-36
2020/12/11 06:49:02;;;;;;;;;;;;;;;26.21;31.57;99965.59;5041392;28;1902;-39
2020/12/11 06:51:28;;;;;;;;;;;;;;;26.27;31.62;99962.13;5059791;28;868;-36
2020/12/11 06:53:53;;;;;;;;;;;;;;;26.28;31.73;99960.25;5060269;28;816;-46
2020/12/11 06:56:37;;;;;;;;;;;;;;;26.34;31.26;99966.75;5060489;28;777;-36
2020/12/11 06:59:24;;;;;;;;;;;;;;;26.29;31.45;99968.13;5059563;28;773;-43
2020/12/11 07:01:50;;;;;;;;;;;;;;;26.33;31.36;99970.47;5059763;28;824;-34
2020/12/11 07:04:15;;;;;;;;;;;;;;;26.31;31.09;99970.63;5059445;28;1022;-46
2020/12/11 07:06:50;;;;;;;;;;;;;;;26.29;31.31;99967.31;5060162;28;787;-48
2020/12/11 07:09:15;;;;;;;;;;;;;;;26.31;31.42;99962.56;5059831;28;1907;-33
2020/12/11 07:11:44;;;;;;;;;;;;;;;26.33;31.29;99959.69;5059818;28;748;-42
2020/12/11 07:14:09;;;;;;;;;;;;;;;26.34;31.13;99966.75;5061613;28;1085;-41
2020/12/11 07:16:39;;;;;;;;;;;;;;;26.34;31.12;99972.16;5079815;28;799;-42
2020/12/11 07:19:04;;;;;;;;;;;;;;;26.31;31.13;99962.56;5074301;28;1313;-33
2020/12/11 07:21:29;;;;;;;;;;;;;;;26.29;31.24;99957.34;5059575;28;780;-39
2020/12/11 07:23:55;;;;;;;;;;;;;;;26.37;31.24;99955.56;5041674;28;847;-39
2020/12/11 07:26:20;;;;;;;;;;;;;;;26.40;31.10;99968.66;5041304;28;1318;-36
2020/12/11 07:28:45;;;;;;;;;;;;;;;26.32;31.18;99960.69;5059062;28;1906;-36
2020/12/11 07:31:11;;;;;;;;;;;;;;;26.33;31.20;99954.28;5059952;28;799;-34
2020/12/11 07:33:36;;;;;;;;;;;;;;;26.36;31.21;99952.03;5059044;28;960;-41
2020/12/11 07:36:02;;;;;;;;;;;;;;;26.37;31.27;99944.78;5058992;28;811;-38
2020/12/11 07:38:27;;;;;;;;;;;;;;;26.35;31.06;99947.69;5041282;28;876;-39
2020/12/11 07:40:53;;;;;;;;;;;;;;;26.36;31.15;99945.84;5059068;28;840;-39
2020/12/11 07:43:18;;;;;;;;;;;;;;;26.32;31.17;99937.28;5058754;28;543;-42
2020/12/11 07:45:45;;;;;;;;;;;;;;;26.37;30.98;99934.00;5059240;28;844;-37
2020/12/11 07:48:11;;;;;;;;;;;;;;;26.33;31.24;99924.63;5058598;28;1902;-39
2020/12/11 07:50:36;;;;;;;;;;;;;;;26.28;31.43;99917.97;5076038;28;1009;-39
2020/12/11 07:53:05;;;;;;;;;;;;;;;26.32;31.07;99928.34;5079208;28;771;-41
2020/12/11 07:55:31;;;;;;;;;;;;;;;26.28;31.24;99925.19;5078931;28;784;-42
2020/12/11 07:57:56;;;;;;;;;;;;;;;26.29;31.17;99930.41;5078251;28;800;-35
2020/12/11 08:00:22;;;;;;;;;;;;;;;26.34;31.07;99921.75;5078700;28;904;-41
2020/12/11 08:02:51;;;;;;;;;;;;;;;26.25;31.22;99931.84;5078791;28;741;-41
2020/12/11 08:05:16;;;;;;;;;;;;;;;26.30;31.23;99933.94;5062929;28;982;-39
2020/12/11 08:07:41;;;;;;;;;;;;;;;26.24;31.40;99945.50;5041215;28;1894;-42
2020/12/11 08:10:07;;;;;;;;;;;;;;;26.25;31.27;99942.63;5058564;28;749;-37
2020/12/11 08:12:33;;;;;;;;;;;;;;;26.25;31.25;99939.06;5058168;28;796;-42
2020/12/11 08:14:58;;;;;;;;;;;;;;;26.29;31.19;99935.78;5068106;28;1108;-41
2020/12/11 08:17:24;;;;;;;;;;;;;;;26.35;31.10;99944.16;5078275;28;1275;-40
2020/12/11 08:19:58;;;;;;;;;;;;;;;26.37;31.03;99937.53;5066772;28;1006;-41
2020/12/11 08:22:24;;;;;;;;;;;;;;;26.33;31.12;99941.66;5058556;28;800;-41
2020/12/11 08:24:49;;;;;;;;;;;;;;;26.27;31.16;99943.25;5040162;28;1522;-40
2020/12/11 08:27:21;;;;;;;;;;;;;;;26.37;31.15;99942.94;5058103;28;760;-41
2020/12/11 08:30:07;;;;;;;;;;;;;;;26.32;31.20;99949.91;5040679;28;1919;-39
2020/12/11 08:32:33;;;;;;;;;;;;;;;26.33;31.25;99954.28;5058307;28;832;-45
2020/12/11 08:34:58;;;;;;;;;;;;;;;26.44;31.15;99953.78;5057571;28;1002;-36
2020/12/11 08:37:23;;;;;;;;;;;;;;;26.28;31.09;99955.69;5058084;28;795;-36
2020/12/11 08:39:49;;;;;;;;;;;;;;;26.44;30.96;99961.03;5058196;28;821;-35
2020/12/11 08:45:30;;;;;;;;;;;;;;;26.43;30.97;99953.94;5057768;28;637;-38
2020/12/11 08:52:47;;;;;;;;;;;;;;;26.32;31.18;99953.44;5058347;28;724;-39
2020/12/11 08:55:13;;;;;;;;;;;;;;;26.27;31.21;99945.13;5057938;28;764;-38
2020/12/11 08:57:38;;;;;;;;;;;;;;;26.35;31.05;99947.69;5057226;28;494;-34
2020/12/11 09:00:04;;;;;;;;;;;;;;;26.31;31.16;99940.97;5057453;28;547;-38
2020/12/11 09:02:30;;;;;;;;;;;;;;;26.28;31.26;99939.53;5057861;28;783;-38
2020/12/11 09:04:55;;;;;;;;;;;;;;;26.32;31.08;99941.81;5057395;28;932;-37
2020/12/11 09:07:23;;;;;;;;;;;;;;;26.19;31.29;99939.88;5057303;28;938;-29
2020/12/11 09:09:48;;;;;;;;;;;;;;;26.32;31.42;99945.34;5056850;28;1961;-31
2020/12/11 09:12:15;;;;;;;;;;;;;;;26.35;31.34;99939.59;5057200;28;850;-37
2020/12/11 09:14:40;;;;;;;;;;;;;;;26.26;31.63;99943.44;5064126;28;1093;-38
2020/12/11 09:17:05;;;;;;;;;;;;;;;26.24;31.77;99943.63;5077499;28;759;-30
2020/12/11 09:19:30;;;;;;;;;;;;;;;26.22;31.63;99944.88;5068249;28;1293;-38
2020/12/11 09:22:00;;;;;;;;;;;;;;;26.23;31.68;99947.38;5057425;28;748;-36
2020/12/11 09:24:25;;;;;;;;;;;;;;;26.19;31.69;99946.09;5057496;28;792;-38
2020/12/11 09:26:51;;;;;;;;;;;;;;;26.18;31.82;99949.81;5056820;28;768;-38
2020/12/11 09:29:27;;;;;;;;;;;;;;;26.24;31.55;99948.22;5057426;28;1981;-35
2020/12/11 09:31:56;;;;;;;;;;;;;;;26.21;31.52;99945.91;5057279;28;803;-37
2020/12/11 09:34:22;;;;;;;;;;;;;;;26.25;31.69;99939.91;5056442;28;960;-38
2020/12/11 09:36:47;;;;;;;;;;;;;;;26.24;31.70;99940.13;5056690;28;1471;-34
2020/12/11 09:39:12;;;;;;;;;;;;;;;26.23;31.64;99944.66;5057209;28;745;-38
2020/12/11 09:41:39;;;;;;;;;;;;;;;26.25;31.71;99939.91;5056753;28;788;-37
2020/12/11 09:44:31;;;;;;;;;;;;;;;26.25;31.68;99944.47;5057016;28;748;-38
2020/12/11 09:55:12;;;;;;;;;;;;;;;26.19;31.69;99937.19;5056670;28;618;-38
2020/12/11 09:57:37;;;;;;;;;;;;;;;26.22;31.70;99942.16;5056328;28;772;-37
2020/12/11 10:00:04;;;;;;;;;;;;;;;26.21;31.66;99929.72;5056956;28;796;-38
2020/12/11 10:03:14;;;;;;;;;;;;;;;26.16;31.72;99930.31;5056796;28;800;-37
2020/12/11 10:05:19;;;;;;;;;;;;;;;26.28;31.36;99930.59;5042710;28;1526;-31
2020/12/11 10:07:44;;;;;;;;;;;;;;;26.24;31.61;99932.84;5056704;28;1901;-37
2020/12/11 10:10:09;;;;;;;;;;;;;;;26.16;31.76;99933.84;5056900;28;816;-37
2020/12/11 10:12:35;;;;;;;;;;;;;;;26.05;31.80;99942.47;5056189;28;743;-37
2020/12/11 10:15:06;;;;;;;;;;;;;;;26.19;31.55;99939.88;5066062;28;1152;-38
2020/12/11 10:17:31;;;;;;;;;;;;;;;25.59;31.40;99930.25;5076073;28;1023;-38
2020/12/11 10:19:57;;;;;;;;;;;;;;;25.76;31.76;99930.81;5063716;28;998;-30
2020/12/11 10:22:22;;;;;;;;;;;;;;;25.80;32.03;99929.41;5059456;28;844;-35
2020/12/11 10:24:47;;;;;;;;;;;;;;;25.78;32.09;99934.16;5060787;28;748;-32
2020/12/11 10:27:13;;;;;;;;;;;;;;;25.80;32.01;99929.41;5059779;28;815;-38
2020/12/11 10:29:38;;;;;;;;;;;;;;;25.87;31.93;99921.38;5060926;28;1910;-37
2020/12/11 10:32:04;;;;;;;;;;;;;;;25.90;31.91;99926.38;5060687;28;875;-38
2020/12/11 10:34:30;;;;;;;;;;;;;;;25.83;32.06;99934.41;5060078;28;1007;-37
2020/12/11 10:36:55;;;;;;;;;;;;;;;25.83;32.06;99930.88;5066553;28;852;-36
2020/12/11 10:39:20;;;;;;;;;;;;;;;25.74;32.16;99935.59;5079506;28;809;-37
2020/12/11 10:41:46;;;;;;;;;;;;;;;25.67;32.31;99928.25;5079247;28;864;-35
2020/12/11 10:44:11;;;;;;;;;;;;;;;25.64;32.42;99927.84;5067065;28;881;-37
2020/12/11 10:46:36;;;;;;;;;;;;;;;25.65;32.32;99927.63;5041747;28;1448;-33
2020/12/11 10:49:01;;;;;;;;;;;;;;;25.67;32.42;99933.66;5047065;28;1992;-37
2020/12/11 10:51:27;;;;;;;;;;;;;;;25.66;32.38;99931.16;5067066;28;1106;-30
2020/12/11 10:53:52;;;;;;;;;;;;;;;25.66;32.43;99928.44;5066128;28;1028;-37
2020/12/11 10:56:20;;;;;;;;;;;;;;;25.74;32.28;99931.00;5066921;28;1107;-29
2020/12/11 10:58:48;;;;;;;;;;;;;;;25.73;32.28;99926.66;5062233;28;1254;-31
2020/12/11 11:01:13;;;;;;;;;;;;;;;25.79;32.21;99930.47;5062808;28;1026;-35
2020/12/11 11:03:39;;;;;;;;;;;;;;;25.63;32.33;99927.00;5058083;28;1494;-37
2020/12/11 11:11:35;;;;;;;;;;;;;;;25.76;32.45;99928.13;5079310;28;649;-38
2020/12/11 11:29:42;;;;;;;;;;;;;;;25.74;32.40;99938.28;5051728;28;1990;-38
2020/12/11 11:32:07;;;;;;;;;;;;;;;25.70;32.49;99937.81;5050020;28;963;-38
2020/12/11 11:34:33;;;;;;;;;;;;;;;25.79;32.27;99936.66;5029491;28;1278;-38
2020/12/11 11:36:58;;;;;;;;;;;;;;;25.85;32.37;99936.91;5034058;28;1028;-37
2020/12/11 11:39:23;;;;;;;;;;;;;;;25.96;32.04;99931.00;5040972;28;1072;-34
2020/12/11 11:41:53;;;;;;;;;;;;;;;25.84;31.95;99935.25;5033654;28;1346;-33
2020/12/11 11:44:31;;;;;;;;;;;;;;;25.73;32.25;99926.66;5041467;28;1226;-31
2020/12/11 11:46:57;;;;;;;;;;;;;;;25.70;32.38;99935.13;5040247;28;1199;-32
2020/12/11 11:52:23;;;;;;;;;;;;;;;25.73;32.27;99940.13;5023258;28;1424;-33
2020/12/11 11:54:49;;;;;;;;;;;;;;;25.74;32.28;99935.59;5032749;28;1505;-35
2020/12/11 11:57:14;;;;;;;;;;;;;;;25.67;32.33;99936.34;5040131;28;1244;-32
2020/12/11 11:59:39;;;;;;;;;;;;;;;25.65;32.36;99945.66;5051831;28;889;-40
2020/12/11 12:02:05;;;;;;;;;;;;;;;25.72;32.30;99943.88;5052175;28;1035;-39
2020/12/11 12:04:30;;;;;;;;;;;;;;;25.67;32.35;99936.34;5041789;28;1265;-39
2020/12/11 12:06:55;;;;;;;;;;;;;;;25.65;32.37;99937.56;5044014;28;1209;-39
2020/12/11 12:09:21;;;;;;;;;;;;;;;25.58;32.41;99940.16;5050113;28;1960;-38
2020/12/11 12:11:46;;;;;;;;;;;;;;;25.67;32.27;99946.31;5057942;28;768;-36
2020/12/11 12:14:11;;;;;;;;;;;;;;;25.67;32.38;99936.34;5057833;28;860;-34
2020/12/11 12:16:38;;;;;;;;;;;;;;;25.73;32.15;99933.91;5058320;28;734;-39
2020/12/11 12:19:03;;;;;;;;;;;;;;;25.65;32.31;99934.88;5068623;28;1442;-38
2020/12/11 12:29:24;;;;;;;;;;;;;;;25.63;32.40;99936.91;5057994;28;1975;-40
2020/12/11 12:31:56;;;;;;;;;;;;;;;25.58;32.28;99950.94;5058018;28;795;-33
2020/12/11 12:45:02;;;;;;;;;;;;;;;25.69;32.14;99973.88;5077872;28;805;-39
2020/12/11 12:47:27;;;;;;;;;;;;;;;25.63;32.22;99966.53;5077319;28;878;-33
2020/12/11 12:49:52;;;;;;;;;;;;;;;25.66;32.23;99969.69;5065536;28;1965;-39
2020/12/11 12:52:18;;;;;;;;;;;;;;;25.57;32.39;99986.97;5057984;28;768;-41
2020/12/11 12:54:43;;;;;;;;;;;;;;;25.56;32.42;99983.44;5057451;28;901;-40
2020/12/11 12:57:16;;;;;;;;;;;;;;;25.63;32.26;99978.16;5057796;28;748;-35
2020/12/11 13:07:18;;;;;;;;;;;;;;;25.61;32.27;99980.19;5057897;28;748;-32
2020/12/11 13:09:43;;;;;;;;;;;;;;;25.62;32.22;99989.94;5056703;28;1898;-39
2020/12/11 13:12:08;;;;;;;;;;;;;;;25.62;32.38;99992.63;5057671;28;764;-32
2020/12/11 13:14:34;;;;;;;;;;;;;;;25.57;32.55;100000.44;5063424;28;1092;-36
2020/12/11 13:17:01;;;;;;;;;;;;;;;25.65;32.30;99986.91;5077147;28;760;-38
2020/12/11 13:19:27;;;;;;;;;;;;;;;25.69;32.25;100000.81;5068728;28;1100;-37
2020/12/11 13:27:25;;;;;;;;;;;;;;;25.58;32.51;100001.25;5056987;28;618;-40
2020/12/11 13:29:51;;;;;;;;;;;;;;;25.56;32.53;99998.75;5057024;28;1906;-38
2020/12/11 13:32:16;;;;;;;;;;;;;;;25.50;32.66;100002.22;5056846;28;792;-35
2020/12/11 13:34:41;;;;;;;;;;;;;;;25.35;32.90;100007.66;5056927;28;1006;-39
2020/12/11 13:37:07;;;;;;;;;;;;;;;25.21;33.01;100006.66;5056512;28;782;-31
2020/12/11 13:39:32;;;;;;;;;;;;;;;25.70;32.42;100007.84;5056783;28;748;-39
2020/12/11 13:41:57;;;;;;;;;;;;;;;26.02;31.77;100010.22;5057040;28;756;-39
2020/12/11 13:44:23;;;;;;;;;;;;;;;25.94;32.09;100010.38;5056941;28;780;-39
2020/12/11 13:46:48;;;;;;;;;;;;;;;25.78;31.97;100005.03;5056623;28;865;-39
2020/12/11 13:49:16;;;;;;;;;;;;;;;25.69;32.21;100008.91;5056356;28;1961;-39
2020/12/11 13:51:42;;;;;;;;;;;;;;;25.94;32.00;100002.28;5056430;28;840;-39
2020/12/11 13:54:07;;;;;;;;;;;;;;;25.93;31.74;100004.13;5056149;28;832;-38
2020/12/11 13:56:33;;;;;;;;;;;;;;;25.81;31.94;100014.59;5056022;28;986;-39
2020/12/11 13:58:58;;;;;;;;;;;;;;;25.69;32.30;100016.97;5056734;28;804;-35
2020/12/11 14:01:23;;;;;;;;;;;;;;;25.85;32.12;100018.59;5056653;28;779;-34
2020/12/11 14:03:49;;;;;;;;;;;;;;;26.78;30.61;100016.00;5056301;28;951;-38
2020/12/11 14:06:14;;;;;;;;;;;;;;;26.26;31.14;100013.53;5056582;28;900;-39
2020/12/11 14:08:39;;;;;;;;;;;;;;;26.10;31.46;100026.28;5056168;28;1901;-33
2020/12/11 14:11:05;;;;;;;;;;;;;;;25.51;32.74;100026.28;5056221;28;825;-38